Time;durP1;ratioP1;P1;durP2;ratioP2;P2;SDS_P1;SDS_P2;PMS_P1;PMS_P2;Temp;Humidity;BMP_temperature;BMP_pressure;BME280_temperature;BME280_humidity;BME280_pressure;Samples;Min_cycle;Max_cycle;Signal;HPM_P1;HPM_P2
2023/05/06 00:00:36;;;;;;;5.40;2.25;;;16.70;99.90;;;;;;4133556;28;20054;-50
2023/05/06 00:02:38;;;;;;;5.00;2.38;;;16.70;99.90;;;;;;4133128;28;20385;-51
2023/05/06 00:04:40;;;;;;;4.10;2.35;;;16.70;99.90;;;;;;4133660;28;20050;-52
2023/05/06 00:06:42;;;;;;;6.30;2.13;;;16.60;99.90;;;;;;4133830;28;20077;-51
2023/05/06 00:08:45;;;;;;;4.80;2.45;;;16.60;99.90;;;;;;4133383;28;20130;-51
2023/05/06 00:10:47;;;;;;;4.13;1.92;;;16.60;99.90;;;;;;4133352;28;20072;-52
2023/05/06 00:12:49;;;;;;;6.05;2.33;;;16.60;99.90;;;;;;4132741;28;20108;-51
2023/05/06 00:14:53;;;;;;;3.78;1.80;;;16.70;99.90;;;;;;4133562;28;20051;-51
2023/05/06 00:16:55;;;;;;;4.70;1.83;;;16.70;99.90;;;;;;4133841;28;20120;-50
2023/05/06 00:18:57;;;;;;;4.90;2.15;;;16.60;99.90;;;;;;4133446;28;20042;-50
2023/05/06 00:20:59;;;;;;;4.95;2.17;;;16.70;99.90;;;;;;4133496;28;20061;-51
2023/05/06 00:23:01;;;;;;;2.88;1.40;;;16.70;99.90;;;;;;4132384;28;20050;-51
2023/05/06 00:25:04;;;;;;;5.00;2.00;;;16.70;99.90;;;;;;4133090;28;20050;-53
2023/05/06 00:27:06;;;;;;;7.10;2.10;;;16.70;99.90;;;;;;4132833;28;20047;-51
2023/05/06 00:29:08;;;;;;;4.60;1.80;;;16.70;99.90;;;;;;4115749;28;20057;-53
2023/05/06 00:31:12;;;;;;;6.68;1.67;;;16.80;99.90;;;;;;4133473;28;20088;-50
2023/05/06 00:33:14;;;;;;;5.55;2.08;;;16.80;99.90;;;;;;4132378;28;20050;-51
2023/05/06 00:35:16;;;;;;;4.72;2.00;;;16.80;99.90;;;;;;4133163;28;20046;-49
2023/05/06 00:37:18;;;;;;;3.78;1.85;;;16.80;99.90;;;;;;4133352;28;20064;-53
2023/05/06 00:39:20;;;;;;;5.25;1.88;;;16.80;99.90;;;;;;4115659;28;20085;-53
2023/05/06 00:41:22;;;;;;;4.40;1.63;;;16.80;99.90;;;;;;4115910;28;20090;-51
2023/05/06 00:43:25;;;;;;;6.57;2.10;;;16.80;99.90;;;;;;4132113;28;20046;-51
2023/05/06 00:45:27;;;;;;;4.53;2.30;;;16.70;99.90;;;;;;4133106;28;20125;-50
2023/05/06 00:47:30;;;;;;;5.75;2.30;;;16.70;99.90;;;;;;4132994;28;20053;-51
2023/05/06 00:49:33;;;;;;;3.83;1.85;;;16.70;99.90;;;;;;4133012;28;20053;-56
2023/05/06 00:51:35;;;;;;;4.43;2.00;;;16.70;99.90;;;;;;4133073;28;20051;-55
2023/05/06 00:53:38;;;;;;;3.80;1.60;;;16.70;99.90;;;;;;4131986;28;20050;-54
2023/05/06 00:55:40;;;;;;;7.03;2.20;;;16.70;99.90;;;;;;4132817;28;20058;-55
2023/05/06 00:57:43;;;;;;;5.45;1.60;;;16.80;99.90;;;;;;4133039;28;20446;-56
2023/05/06 00:59:45;;;;;;;6.18;2.20;;;16.80;99.90;;;;;;4132954;28;20046;-57
2023/05/06 01:01:47;;;;;;;4.70;1.83;;;16.80;99.90;;;;;;4133070;28;20042;-57
2023/05/06 01:03:55;;;;;;;8.02;1.85;;;16.80;99.90;;;;;;4131753;28;20053;-56
2023/05/06 01:06:06;;;;;;;3.08;1.63;;;16.70;99.90;;;;;;4115544;28;20062;-53
2023/05/06 01:08:14;;;;;;;3.75;1.60;;;16.70;99.90;;;;;;4115112;28;20047;-53
2023/05/06 01:10:23;;;;;;;4.70;1.90;;;16.70;99.90;;;;;;4132553;28;20046;-52
2023/05/06 01:12:29;;;;;;;6.95;2.38;;;16.70;99.90;;;;;;4131942;28;20077;-54
2023/05/06 01:14:38;;;;;;;4.60;2.13;;;16.80;99.90;;;;;;4132620;28;20056;-52
2023/05/06 01:16:41;;;;;;;5.38;2.15;;;16.80;99.90;;;;;;4132643;28;20158;-53
2023/05/06 01:18:44;;;;;;;5.68;2.08;;;16.80;99.90;;;;;;4132526;28;20163;-53
2023/05/06 01:20:49;;;;;;;6.30;2.33;;;16.70;99.90;;;;;;4132527;28;20121;-56
2023/05/06 01:22:53;;;;;;;6.30;2.05;;;16.80;99.90;;;;;;4131206;28;20420;-56
2023/05/06 01:24:56;;;;;;;5.10;1.83;;;16.80;99.90;;;;;;4132391;28;20050;-55
2023/05/06 01:26:58;;;;;;;4.68;2.03;;;16.70;99.90;;;;;;4132690;28;20054;-55
2023/05/06 01:29:02;;;;;;;4.10;1.52;;;16.60;99.90;;;;;;4133069;28;20057;-58
2023/05/06 01:31:10;;;;;;;6.78;1.90;;;16.60;99.90;;;;;;4133659;28;20038;-60
2023/05/06 01:33:20;;;;;;;4.72;1.73;;;16.60;99.90;;;;;;4133791;28;20475;-64
2023/05/06 01:35:28;;;;;;;6.43;1.80;;;16.60;99.90;;;;;;4117554;28;20070;-66
2023/05/06 01:37:37;;;;;;;5.75;2.03;;;16.60;99.90;;;;;;4133362;28;20046;-56
2023/05/06 01:39:41;;;;;;;5.40;1.88;;;16.60;99.90;;;;;;4132490;28;20089;-53
2023/05/06 01:41:47;;;;;;;4.53;1.50;;;16.60;99.90;;;;;;4132771;28;20046;-55
2023/05/06 01:43:53;;;;;;;6.13;2.13;;;16.60;99.90;;;;;;4131561;28;20117;-55
2023/05/06 01:45:55;;;;;;;3.60;1.40;;;16.70;99.90;;;;;;4132645;28;20053;-55
2023/05/06 01:47:58;;;;;;;3.70;1.60;;;16.60;99.90;;;;;;4132508;28;20412;-55
2023/05/06 01:50:01;;;;;;;3.80;1.58;;;16.60;99.90;;;;;;4132282;28;20148;-55
2023/05/06 01:52:03;;;;;;;5.68;2.15;;;16.60;99.90;;;;;;4131929;28;20404;-54
2023/05/06 01:54:05;;;;;;;4.18;1.90;;;16.60;99.90;;;;;;4131361;28;20510;-55
2023/05/06 01:56:07;;;;;;;4.78;1.90;;;16.60;99.90;;;;;;4131995;28;20054;-54
2023/05/06 01:58:11;;;;;;;3.70;1.45;;;16.70;99.90;;;;;;4132128;28;20057;-55
2023/05/06 02:00:13;;;;;;;4.82;1.63;;;16.70;99.90;;;;;;4132169;28;20050;-61
2023/05/06 02:02:15;;;;;;;3.38;1.65;;;16.70;99.90;;;;;;4132101;28;20050;-56
2023/05/06 02:04:17;;;;;;;5.05;1.63;;;16.70;99.90;;;;;;4131231;28;20129;-56
2023/05/06 02:06:19;;;;;;;6.28;2.05;;;16.70;99.90;;;;;;4131511;28;20517;-55
2023/05/06 02:08:21;;;;;;;3.45;1.75;;;16.70;99.90;;;;;;4131577;28;20046;-54
2023/05/06 02:10:24;;;;;;;2.70;1.50;;;16.60;99.90;;;;;;4131830;28;20054;-55
2023/05/06 02:12:26;;;;;;;5.20;1.90;;;16.60;99.90;;;;;;4131821;28;20046;-51
2023/05/06 02:14:29;;;;;;;4.53;2.05;;;16.50;99.90;;;;;;4130669;28;20042;-53
2023/05/06 02:16:31;;;;;;;4.53;1.80;;;16.50;99.90;;;;;;4131423;28;20050;-53
2023/05/06 02:18:34;;;;;;;8.93;2.05;;;16.50;99.90;;;;;;4131721;28;20042;-53
2023/05/06 02:20:36;;;;;;;8.13;1.88;;;16.50;99.90;;;;;;4114173;28;20064;-52
2023/05/06 02:22:38;;;;;;;3.58;1.92;;;16.50;99.90;;;;;;4113540;28;20404;-55
2023/05/06 02:24:40;;;;;;;6.32;2.30;;;16.50;99.90;;;;;;4131410;28;20056;-55
2023/05/06 02:26:43;;;;;;;6.30;2.05;;;16.50;99.90;;;;;;4131514;28;20456;-55
2023/05/06 02:28:45;;;;;;;5.30;2.38;;;16.50;99.90;;;;;;4131326;28;20093;-55
2023/05/06 02:30:53;;;;;;;5.10;1.95;;;16.50;99.90;;;;;;4131622;28;20431;-55
2023/05/06 02:32:56;;;;;;;4.15;2.63;;;16.50;99.90;;;;;;4130644;28;20064;-57
2023/05/06 02:34:58;;;;;;;5.53;2.00;;;16.40;99.90;;;;;;4131202;28;20467;-56
2023/05/06 02:37:00;;;;;;;3.42;1.58;;;16.50;99.90;;;;;;4131673;28;20050;-55
2023/05/06 02:39:03;;;;;;;3.15;1.60;;;16.40;99.90;;;;;;4131423;28;20101;-56
2023/05/06 02:41:09;;;;;;;5.85;2.13;;;16.50;99.90;;;;;;4131657;28;20062;-55
2023/05/06 02:43:11;;;;;;;4.97;1.83;;;16.50;99.90;;;;;;4130676;28;20108;-55
2023/05/06 02:45:13;;;;;;;7.32;2.42;;;16.40;99.90;;;;;;4131404;28;20046;-55
2023/05/06 02:47:17;;;;;;;10.57;2.83;;;16.40;99.90;;;;;;4131353;28;20053;-54
2023/05/06 02:49:22;;;;;;;6.32;2.15;;;16.40;99.90;;;;;;4131604;28;20046;-54
2023/05/06 02:51:24;;;;;;;4.18;1.75;;;16.40;99.90;;;;;;4134191;28;20101;-56
2023/05/06 02:53:26;;;;;;;7.30;2.30;;;16.50;99.90;;;;;;4133817;28;20097;-55
2023/05/06 02:55:28;;;;;;;4.72;2.10;;;16.50;99.90;;;;;;4117645;28;20057;-55
2023/05/06 02:57:30;;;;;;;5.35;1.95;;;16.40;99.90;;;;;;4117603;28;20404;-56
2023/05/06 02:59:33;;;;;;;4.63;2.00;;;16.40;99.90;;;;;;4135070;28;20050;-54
2023/05/06 03:01:35;;;;;;;5.75;2.05;;;16.50;99.90;;;;;;4134600;28;20153;-55
2023/05/06 03:03:39;;;;;;;4.13;2.13;;;16.50;99.90;;;;;;4133523;28;20133;-55
2023/05/06 03:05:41;;;;;;;3.10;1.70;;;16.50;99.90;;;;;;4134460;28;20050;-56
2023/05/06 03:07:43;;;;;;;4.40;2.22;;;16.50;99.90;;;;;;4134593;28;20047;-56
2023/05/06 03:09:45;;;;;;;9.15;2.35;;;16.50;99.90;;;;;;4117207;28;20043;-56
2023/05/06 03:11:47;;;;;;;6.68;2.13;;;16.50;99.90;;;;;;4134309;28;20089;-56
2023/05/06 03:13:50;;;;;;;9.25;2.17;;;16.50;99.90;;;;;;4133438;28;20046;-55
2023/05/06 03:15:55;;;;;;;8.18;2.53;;;16.40;99.90;;;;;;4134407;28;20166;-56
2023/05/06 03:17:57;;;;;;;5.57;2.30;;;16.30;99.90;;;;;;4134717;28;20046;-56
2023/05/06 03:20:01;;;;;;;4.15;2.25;;;16.40;99.90;;;;;;4134041;28;20496;-56
2023/05/06 03:22:03;;;;;;;5.80;2.00;;;16.50;99.90;;;;;;4134257;28;20109;-55
2023/05/06 03:24:06;;;;;;;6.40;2.50;;;16.50;99.90;;;;;;4133253;28;20464;-55
2023/05/06 03:26:08;;;;;;;4.68;2.30;;;16.40;99.90;;;;;;4134347;28;20484;-55
2023/05/06 03:28:10;;;;;;;6.35;2.70;;;16.30;99.90;;;;;;4134404;28;20117;-54
2023/05/06 03:30:13;;;;;;;7.95;2.78;;;16.40;99.90;;;;;;4134787;28;20480;-60
2023/05/06 03:32:15;;;;;;;4.53;2.20;;;16.40;99.90;;;;;;4118297;28;20047;-55
2023/05/06 03:34:17;;;;;;;7.45;2.83;;;16.30;99.90;;;;;;4116631;28;20413;-55
2023/05/06 03:36:24;;;;;;;8.23;2.80;;;16.40;99.90;;;;;;4134739;28;20126;-57
2023/05/06 03:38:26;;;;;;;6.60;2.50;;;16.30;99.90;;;;;;4134410;28;20097;-55
2023/05/06 03:40:28;;;;;;;6.43;2.75;;;16.30;99.90;;;;;;4133996;28;20042;-54
2023/05/06 03:42:30;;;;;;;5.10;2.35;;;16.40;99.90;;;;;;4133990;28;20047;-55
2023/05/06 03:44:33;;;;;;;9.43;2.58;;;16.40;99.90;;;;;;4133375;28;20126;-55
2023/05/06 03:46:39;;;;;;;6.57;2.45;;;16.40;99.90;;;;;;4134173;28;20046;-55
2023/05/06 03:48:41;;;;;;;5.50;3.00;;;16.40;99.90;;;;;;4133591;28;20175;-56
2023/05/06 03:50:43;;;;;;;6.57;2.58;;;16.40;99.90;;;;;;4134094;28;20054;-55
2023/05/06 03:52:47;;;;;;;8.70;2.60;;;16.40;99.90;;;;;;4133964;28;20058;-54
2023/05/06 03:54:49;;;;;;;4.90;2.33;;;16.40;99.90;;;;;;4133055;28;20451;-54
2023/05/06 03:56:51;;;;;;;5.30;2.50;;;16.40;99.90;;;;;;4134148;28;20054;-55
2023/05/06 03:58:53;;;;;;;5.47;2.42;;;16.40;99.90;;;;;;4133557;28;20046;-56
2023/05/06 04:00:55;;;;;;;7.45;2.70;;;16.40;99.90;;;;;;4133807;28;20053;-55
2023/05/06 04:02:57;;;;;;;3.75;2.08;;;16.40;99.90;;;;;;4115082;28;20047;-55
2023/05/06 04:05:00;;;;;;;5.32;2.30;;;16.30;99.90;;;;;;4133171;28;20053;-55
2023/05/06 04:07:02;;;;;;;8.20;2.58;;;16.40;99.90;;;;;;4116592;28;20126;-54
2023/05/06 04:09:06;;;;;;;8.75;2.53;;;16.30;99.90;;;;;;4133801;28;20077;-55
2023/05/06 04:11:08;;;;;;;5.82;2.25;;;16.30;99.90;;;;;;4133821;28;20050;-54
2023/05/06 04:13:10;;;;;;;5.53;2.30;;;16.40;99.90;;;;;;4132943;28;20492;-55
2023/05/06 04:15:12;;;;;;;6.68;2.17;;;16.40;99.90;;;;;;4133468;28;20144;-54
2023/05/06 04:17:15;;;;;;;5.93;2.97;;;16.30;99.90;;;;;;4133319;28;20069;-55
2023/05/06 04:19:17;;;;;;;8.27;2.67;;;16.40;99.90;;;;;;4134051;28;20069;-55
2023/05/06 04:21:19;;;;;;;4.63;2.38;;;16.40;99.90;;;;;;4134209;28;20054;-57
2023/05/06 04:23:21;;;;;;;5.35;3.03;;;16.40;99.90;;;;;;4133144;28;20096;-55
2023/05/06 04:25:24;;;;;;;6.28;2.67;;;16.40;99.90;;;;;;4133440;28;20069;-55
2023/05/06 04:27:28;;;;;;;6.60;2.40;;;16.50;99.90;;;;;;4133418;28;20050;-57
2023/05/06 04:29:30;;;;;;;8.98;2.45;;;16.50;99.90;;;;;;4133619;28;20129;-53
2023/05/06 04:31:33;;;;;;;7.10;2.58;;;16.50;99.90;;;;;;4132890;28;20454;-52
2023/05/06 04:33:35;;;;;;;8.65;2.53;;;16.40;99.90;;;;;;4133468;28;20046;-54
2023/05/06 04:35:37;;;;;;;7.38;2.35;;;16.50;99.90;;;;;;4134527;28;20476;-52
2023/05/06 04:37:40;;;;;;;11.15;2.90;;;16.60;99.90;;;;;;4134505;28;20049;-55
2023/05/06 04:39:46;;;;;;;9.05;2.70;;;16.60;99.90;;;;;;4133572;28;20071;-55
2023/05/06 04:41:49;;;;;;;6.38;2.88;;;16.50;99.90;;;;;;4133262;28;20415;-55
2023/05/06 04:43:51;;;;;;;9.63;3.00;;;16.50;99.90;;;;;;4132218;28;20054;-52
2023/05/06 04:45:54;;;;;;;4.85;2.50;;;16.40;99.90;;;;;;4133023;28;20068;-53
2023/05/06 04:47:56;;;;;;;9.23;3.78;;;16.50;99.90;;;;;;4133214;28;20050;-52
2023/05/06 04:49:58;;;;;;;6.35;3.10;;;16.40;99.90;;;;;;4133272;28;20046;-52
2023/05/06 04:52:00;;;;;;;9.93;3.90;;;16.50;99.90;;;;;;4133048;28;20042;-53
2023/05/06 04:54:04;;;;;;;12.20;4.60;;;16.60;99.90;;;;;;4132020;28;20046;-55
2023/05/06 04:56:07;;;;;;;7.93;3.90;;;16.60;99.90;;;;;;4133125;28;20440;-54
2023/05/06 04:58:10;;;;;;;8.07;4.03;;;16.60;99.90;;;;;;4132846;28;20088;-56
2023/05/06 05:00:13;;;;;;;7.78;4.22;;;16.70;99.90;;;;;;4133052;28;20062;-54
2023/05/06 05:02:15;;;;;;;8.70;4.00;;;16.80;99.90;;;;;;4133172;28;20411;-54
2023/05/06 05:04:17;;;;;;;9.60;3.75;;;16.70;99.90;;;;;;4132067;28;20093;-54
2023/05/06 05:06:19;;;;;;;11.77;3.80;;;16.70;99.90;;;;;;4133301;28;20046;-54
2023/05/06 05:08:21;;;;;;;9.05;3.90;;;16.70;99.90;;;;;;4133142;28;20060;-56
2023/05/06 05:10:25;;;;;;;11.10;3.85;;;16.70;99.90;;;;;;4132837;28;20130;-55
2023/05/06 05:12:27;;;;;;;8.02;3.10;;;16.70;99.90;;;;;;4132601;28;20069;-55
2023/05/06 05:14:30;;;;;;;8.02;3.42;;;16.70;99.90;;;;;;4132175;28;20054;-61
2023/05/06 05:16:32;;;;;;;8.15;3.30;;;16.70;99.90;;;;;;4135156;28;20046;-56
2023/05/06 05:18:35;;;;;;;8.50;2.80;;;16.70;99.90;;;;;;4134980;28;20046;-60
2023/05/06 05:20:38;;;;;;;5.53;3.00;;;16.80;99.90;;;;;;4135201;28;20056;-56
2023/05/06 05:22:40;;;;;;;6.05;3.28;;;16.80;99.90;;;;;;4133889;28;20058;-58
2023/05/06 05:24:42;;;;;;;9.68;3.35;;;16.80;99.90;;;;;;4132775;28;20061;-53
2023/05/06 05:26:44;;;;;;;8.35;3.22;;;16.80;99.90;;;;;;4133950;28;20475;-59
2023/05/06 05:28:46;;;;;;;7.30;2.97;;;16.80;99.90;;;;;;4133870;28;20050;-62
2023/05/06 05:30:49;;;;;;;6.50;3.42;;;16.90;99.90;;;;;;4132372;28;20056;-53
2023/05/06 05:32:51;;;;;;;8.75;3.45;;;16.90;99.90;;;;;;4132576;28;20050;-53
2023/05/06 05:34:53;;;;;;;7.28;3.10;;;16.90;99.90;;;;;;4132364;28;20057;-54
2023/05/06 05:36:58;;;;;;;8.48;3.28;;;17.00;99.90;;;;;;4134124;28;20042;-57
2023/05/06 05:39:00;;;;;;;8.45;3.30;;;17.00;99.90;;;;;;4134182;28;20050;-55
2023/05/06 05:41:03;;;;;;;9.30;3.67;;;17.00;99.90;;;;;;4116823;28;20062;-60
2023/05/06 05:43:05;;;;;;;8.35;3.30;;;17.00;99.90;;;;;;4133698;28;20046;-57
2023/05/06 05:45:08;;;;;;;5.18;3.05;;;17.00;99.90;;;;;;4132527;28;20046;-55
2023/05/06 05:47:11;;;;;;;8.85;3.53;;;17.10;99.90;;;;;;4114816;28;20492;-56
2023/05/06 05:49:13;;;;;;;7.97;3.17;;;17.10;99.90;;;;;;4131935;28;20043;-55
2023/05/06 05:51:15;;;;;;;7.75;3.65;;;17.10;99.90;;;;;;4132095;28;20066;-55
2023/05/06 05:53:17;;;;;;;5.35;3.05;;;17.10;99.90;;;;;;4131396;28;20054;-55
2023/05/06 05:55:20;;;;;;;8.35;3.42;;;17.10;99.90;;;;;;4131506;28;20068;-55
2023/05/06 05:57:22;;;;;;;10.90;4.15;;;17.20;99.90;;;;;;4131938;28;20050;-56
2023/05/06 05:59:25;;;;;;;8.32;3.50;;;17.20;99.90;;;;;;4131584;28;20046;-54
2023/05/06 06:01:27;;;;;;;6.82;3.67;;;17.20;99.90;;;;;;4131849;28;20053;-52
2023/05/06 06:03:30;;;;;;;7.15;3.08;;;17.30;99.90;;;;;;4131074;28;20053;-55
2023/05/06 06:05:32;;;;;;;5.60;2.83;;;17.40;99.90;;;;;;4131682;28;20117;-54
2023/05/06 06:07:35;;;;;;;8.32;3.80;;;17.40;99.90;;;;;;4131767;28;20050;-56
2023/05/06 06:09:37;;;;;;;9.00;3.67;;;17.40;99.90;;;;;;4131786;28;20054;-54
2023/05/06 06:11:40;;;;;;;10.73;3.67;;;17.50;99.90;;;;;;4114387;28;20057;-56
2023/05/06 06:13:42;;;;;;;13.50;3.53;;;17.30;99.90;;;;;;4130832;28;20463;-55
2023/05/06 06:15:45;;;;;;;9.77;3.72;;;17.40;99.90;;;;;;4131619;28;20050;-54
2023/05/06 06:17:47;;;;;;;7.30;4.22;;;17.40;99.90;;;;;;4131662;28;20499;-56
2023/05/06 06:19:55;;;;;;;8.68;3.90;;;17.40;99.90;;;;;;4131943;28;20053;-55
2023/05/06 06:21:57;;;;;;;9.00;4.03;;;17.50;99.90;;;;;;4131635;28;20096;-52
2023/05/06 06:24:00;;;;;;;7.50;3.00;;;17.40;99.90;;;;;;4130916;28;20077;-52
2023/05/06 06:26:03;;;;;;;7.28;3.63;;;17.50;99.90;;;;;;4131071;28;20081;-52
2023/05/06 06:28:05;;;;;;;5.82;3.05;;;17.50;99.90;;;;;;4113961;28;20378;-52
2023/05/06 06:30:08;;;;;;;8.38;3.50;;;17.60;99.90;;;;;;4131719;28;20465;-52
2023/05/06 06:32:10;;;;;;;7.63;3.03;;;17.60;99.90;;;;;;4131427;28;20050;-51
2023/05/06 06:34:12;;;;;;;5.63;3.60;;;17.70;99.90;;;;;;4130734;28;20050;-52
2023/05/06 06:36:16;;;;;;;6.22;3.03;;;17.80;99.90;;;;;;4131528;28;20050;-51
2023/05/06 06:38:18;;;;;;;12.60;4.15;;;17.90;99.90;;;;;;4131619;28;20047;-52
2023/05/06 06:40:21;;;;;;;10.02;3.90;;;17.90;99.90;;;;;;4131419;28;20056;-52
2023/05/06 06:42:23;;;;;;;7.63;3.90;;;17.90;99.90;;;;;;4131223;28;20080;-53
2023/05/06 06:44:25;;;;;;;7.07;3.85;;;18.00;99.90;;;;;;4130452;28;20125;-52
2023/05/06 06:46:27;;;;;;;13.13;3.83;;;18.20;99.90;;;;;;4131441;28;20046;-52
2023/05/06 06:48:30;;;;;;;9.38;3.42;;;18.30;99.90;;;;;;4131375;28;20046;-53
2023/05/06 06:50:32;;;;;;;10.80;3.85;;;18.40;99.90;;;;;;4131553;28;20052;-52
2023/05/06 06:52:35;;;;;;;9.50;4.07;;;18.50;99.90;;;;;;4131617;28;20058;-52
2023/05/06 06:54:37;;;;;;;7.43;3.65;;;18.50;99.90;;;;;;4130521;28;20411;-52
2023/05/06 06:56:39;;;;;;;8.23;3.30;;;18.60;99.90;;;;;;4131226;28;20141;-53
2023/05/06 06:58:41;;;;;;;11.52;3.40;;;18.60;99.90;;;;;;4131567;28;20121;-53
2023/05/06 07:00:43;;;;;;;6.03;2.88;;;18.70;99.90;;;;;;4131475;28;20054;-52
2023/05/06 07:02:46;;;;;;;10.65;3.63;;;18.80;99.90;;;;;;4131444;28;20047;-53
2023/05/06 07:04:49;;;;;;;12.75;3.70;;;18.80;99.90;;;;;;4130478;28;20051;-52
2023/05/06 07:06:51;;;;;;;10.05;2.90;;;19.00;99.90;;;;;;4131457;28;20047;-52
2023/05/06 07:08:56;;;;;;;9.03;2.90;;;19.00;99.90;;;;;;4131253;28;20052;-53
2023/05/06 07:10:58;;;;;;;6.88;2.60;;;19.00;99.90;;;;;;4130943;28;20046;-52
2023/05/06 07:13:00;;;;;;;6.57;3.00;;;19.10;99.90;;;;;;4131190;28;20108;-51
2023/05/06 07:15:05;;;;;;;8.38;3.17;;;19.10;99.90;;;;;;4130339;28;20455;-54
2023/05/06 07:17:08;;;;;;;10.35;3.28;;;19.20;99.90;;;;;;4131269;28;20050;-56
2023/05/06 07:19:10;;;;;;;9.95;3.42;;;19.20;99.90;;;;;;4131165;28;20053;-55
2023/05/06 07:21:12;;;;;;;14.98;3.28;;;19.30;99.90;;;;;;4131121;28;20046;-53
2023/05/06 07:23:14;;;;;;;6.07;2.95;;;19.40;99.90;;;;;;4130911;28;20141;-53
2023/05/06 07:25:17;;;;;;;11.98;3.58;;;19.40;99.90;;;;;;4129865;28;20065;-55
2023/05/06 07:27:19;;;;;;;7.53;3.38;;;19.40;99.90;;;;;;4130991;28;20112;-54
2023/05/06 07:29:21;;;;;;;9.02;3.50;;;19.40;99.70;;;;;;4131155;28;20081;-54
2023/05/06 07:31:24;;;;;;;7.07;2.65;;;19.40;99.50;;;;;;4131124;28;20447;-55
2023/05/06 07:33:26;;;;;;;10.27;3.80;;;19.40;99.90;;;;;;4130984;28;20104;-55
2023/05/06 07:35:28;;;;;;;15.13;3.22;;;19.50;99.30;;;;;;4130210;28;20097;-55
2023/05/06 07:37:30;;;;;;;11.23;3.15;;;19.50;99.10;;;;;;4132474;28;20108;-56
2023/05/06 07:39:32;;;;;;;13.60;3.30;;;19.40;98.80;;;;;;4134056;28;20448;-54
2023/05/06 07:41:35;;;;;;;6.63;2.75;;;19.50;99.10;;;;;;4135774;28;20419;-61
2023/05/06 07:43:37;;;;;;;9.05;3.22;;;19.50;99.50;;;;;;4136272;28;20054;-59
2023/05/06 07:45:40;;;;;;;10.75;3.63;;;19.50;99.60;;;;;;4118326;28;20068;-56
2023/05/06 07:47:42;;;;;;;10.73;3.30;;;19.60;99.30;;;;;;4118243;28;20051;-59
2023/05/06 07:49:44;;;;;;;11.75;3.65;;;19.70;99.20;;;;;;4134672;28;20047;-55
2023/05/06 07:51:46;;;;;;;10.32;3.20;;;19.80;99.30;;;;;;4134229;28;20384;-54
2023/05/06 07:53:48;;;;;;;11.45;3.38;;;19.80;99.20;;;;;;4133127;28;20054;-55
2023/05/06 07:55:51;;;;;;;13.00;3.33;;;19.90;98.40;;;;;;4133577;28;20042;-54
2023/05/06 07:57:55;;;;;;;10.00;2.97;;;19.90;98.30;;;;;;4133777;28;20050;-53
2023/05/06 07:59:57;;;;;;;10.00;3.17;;;20.00;97.70;;;;;;4133925;28;20050;-55
2023/05/06 08:01:59;;;;;;;9.52;3.30;;;20.00;98.20;;;;;;4133943;28;20062;-54
2023/05/06 08:04:01;;;;;;;8.27;3.20;;;20.00;98.20;;;;;;4133116;28;20196;-55
2023/05/06 08:06:04;;;;;;;7.75;3.00;;;20.00;98.10;;;;;;4133551;28;20070;-54
2023/05/06 08:08:06;;;;;;;8.38;3.03;;;20.10;97.80;;;;;;4133820;28;20057;-55
2023/05/06 08:10:08;;;;;;;11.30;3.05;;;20.10;98.10;;;;;;4133417;28;20050;-57
2023/05/06 08:12:10;;;;;;;10.48;2.85;;;20.30;97.90;;;;;;4133660;28;20051;-55
2023/05/06 08:14:14;;;;;;;11.15;3.42;;;20.30;98.00;;;;;;4132799;28;20055;-56
2023/05/06 08:16:16;;;;;;;9.88;2.78;;;20.30;97.90;;;;;;4133450;28;20054;-56
2023/05/06 08:18:18;;;;;;;9.43;3.05;;;20.30;97.60;;;;;;4133602;28;20133;-58
2023/05/06 08:20:24;;;;;;;11.10;3.20;;;20.40;97.60;;;;;;4133472;28;20057;-54
2023/05/06 08:22:29;;;;;;;11.63;3.30;;;20.40;97.60;;;;;;4133310;28;20065;-55
2023/05/06 08:24:31;;;;;;;11.40;3.20;;;20.40;97.60;;;;;;4132012;28;20062;-57
2023/05/06 08:26:33;;;;;;;6.75;2.75;;;20.40;97.70;;;;;;4116017;28;20053;-57
2023/05/06 08:28:35;;;;;;;10.98;2.72;;;20.40;97.00;;;;;;4133424;28;20070;-55
2023/05/06 08:30:39;;;;;;;9.38;2.90;;;20.40;97.30;;;;;;4133450;28;20050;-56
2023/05/06 08:32:41;;;;;;;11.88;3.17;;;20.50;97.00;;;;;;4133358;28;20046;-55
2023/05/06 08:34:43;;;;;;;9.02;2.40;;;20.50;96.90;;;;;;4132461;28;20464;-55
2023/05/06 08:36:45;;;;;;;10.43;2.88;;;20.60;97.20;;;;;;4133193;28;20435;-55
2023/05/06 08:38:49;;;;;;;8.65;3.10;;;20.70;96.40;;;;;;4132967;28;20046;-56
2023/05/06 08:40:53;;;;;;;8.50;3.00;;;20.60;96.40;;;;;;4132999;28;20093;-56
2023/05/06 08:42:56;;;;;;;12.73;3.28;;;20.60;96.40;;;;;;4133388;28;20124;-57
2023/05/06 08:44:58;;;;;;;9.82;3.72;;;20.90;96.40;;;;;;4132447;28;20498;-56
2023/05/06 08:47:02;;;;;;;11.57;3.65;;;20.90;96.30;;;;;;4133060;28;20129;-56
2023/05/06 08:49:05;;;;;;;10.18;3.60;;;20.90;96.60;;;;;;4132833;28;20054;-56
2023/05/06 08:51:08;;;;;;;12.73;3.88;;;20.70;96.00;;;;;;4133158;28;20472;-57
2023/05/06 08:53:11;;;;;;;10.30;3.42;;;20.60;95.90;;;;;;4132878;28;20057;-56
2023/05/06 08:55:13;;;;;;;11.07;3.42;;;20.60;96.60;;;;;;4132008;28;20570;-54
2023/05/06 08:57:15;;;;;;;9.07;2.97;;;20.60;96.20;;;;;;4132880;28;20054;-56
2023/05/06 08:59:22;;;;;;;15.05;3.70;;;20.70;96.40;;;;;;4132839;28;20510;-55
2023/05/06 09:01:26;;;;;;;10.52;3.25;;;20.90;96.70;;;;;;4133214;28;20051;-55
2023/05/06 09:03:29;;;;;;;12.00;3.00;;;20.90;96.20;;;;;;4132924;28;20137;-55
2023/05/06 09:05:32;;;;;;;9.67;3.33;;;20.80;96.10;;;;;;4132537;28;20562;-56
2023/05/06 09:07:34;;;;;;;11.15;3.38;;;20.60;96.30;;;;;;4132133;28;20850;-56
2023/05/06 09:09:36;;;;;;;8.07;3.05;;;20.60;96.60;;;;;;4132779;28;20429;-55
2023/05/06 09:11:38;;;;;;;10.75;3.45;;;20.70;95.90;;;;;;4132528;28;20064;-56
2023/05/06 09:13:40;;;;;;;7.18;2.92;;;20.70;96.30;;;;;;4115195;28;20078;-56
2023/05/06 09:15:46;;;;;;;8.18;2.85;;;20.70;95.60;;;;;;4114557;28;20046;-56
2023/05/06 09:17:48;;;;;;;12.95;2.90;;;20.80;96.40;;;;;;4129666;28;20125;-55
2023/05/06 09:19:53;;;;;;;8.27;2.38;;;20.80;95.60;;;;;;4115879;28;20101;-56
2023/05/06 09:21:56;;;;;;;9.45;3.25;;;21.00;96.20;;;;;;4111575;28;20339;-55
2023/05/06 09:23:58;;;;;;;9.60;3.17;;;21.10;96.20;;;;;;4112708;28;20054;-56
2023/05/06 09:26:01;;;;;;;8.13;3.38;;;21.10;95.90;;;;;;4107707;28;20069;-55
2023/05/06 09:28:03;;;;;;;10.75;3.22;;;21.10;95.00;;;;;;4116116;28;20543;-54
2023/05/06 09:30:07;;;;;;;7.57;2.65;;;21.20;95.70;;;;;;4116311;28;20536;-55
2023/05/06 09:32:14;;;;;;;10.98;2.83;;;21.40;95.70;;;;;;4116137;28;20404;-53
2023/05/06 09:34:16;;;;;;;7.97;3.03;;;21.30;95.60;;;;;;4115190;28;20405;-56
2023/05/06 09:36:22;;;;;;;9.13;2.70;;;21.30;95.40;;;;;;4115697;28;20055;-55
2023/05/06 09:38:24;;;;;;;10.55;3.13;;;21.20;95.60;;;;;;4116264;28;20046;-54
2023/05/06 09:40:28;;;;;;;9.32;2.92;;;21.20;95.30;;;;;;4102677;28;20043;-52
2023/05/06 09:42:31;;;;;;;7.45;2.38;;;21.10;95.70;;;;;;4100175;29;20051;-58
2023/05/06 09:44:34;;;;;;;8.05;2.90;;;21.00;95.70;;;;;;4099134;29;20073;-54
2023/05/06 09:46:36;;;;;;;11.35;3.00;;;21.10;95.70;;;;;;4099811;29;20047;-56
2023/05/06 09:48:39;;;;;;;7.78;3.10;;;21.10;95.90;;;;;;4102793;28;20456;-52
2023/05/06 09:50:43;;;;;;;10.10;2.90;;;21.10;95.20;;;;;;4097304;28;20073;-53
2023/05/06 09:52:47;;;;;;;11.77;3.13;;;21.10;95.20;;;;;;4115221;28;20054;-55
2023/05/06 09:54:50;;;;;;;8.63;3.10;;;21.30;95.60;;;;;;4114133;28;20047;-53
2023/05/06 09:56:53;;;;;;;9.52;2.90;;;21.40;95.20;;;;;;4115006;28;20046;-54
2023/05/06 09:59:00;;;;;;;9.48;3.00;;;21.40;95.30;;;;;;4115209;28;20389;-53
2023/05/06 10:01:03;;;;;;;12.13;2.58;;;21.40;94.90;;;;;;4114710;28;20174;-56
2023/05/06 10:03:06;;;;;;;13.27;3.15;;;21.40;95.00;;;;;;4115199;28;20065;-55
2023/05/06 10:05:10;;;;;;;11.88;3.08;;;21.40;94.60;;;;;;4113653;28;20047;-55
2023/05/06 10:07:15;;;;;;;10.77;2.97;;;21.30;95.00;;;;;;4114963;28;20056;-56
2023/05/06 10:09:21;;;;;;;7.80;2.65;;;21.40;94.80;;;;;;4115060;28;20055;-53
2023/05/06 10:11:25;;;;;;;14.55;3.63;;;21.60;94.20;;;;;;4115350;28;20058;-57
2023/05/06 10:13:27;;;;;;;12.48;2.88;;;21.70;94.50;;;;;;4115911;28;20087;-54
2023/05/06 10:15:31;;;;;;;9.95;2.65;;;21.90;94.20;;;;;;4114137;28;20042;-54
2023/05/06 10:17:34;;;;;;;10.23;2.53;;;22.00;93.40;;;;;;4115453;28;20061;-53
2023/05/06 10:19:39;;;;;;;13.20;3.17;;;21.90;94.00;;;;;;4115263;28;20074;-59
2023/05/06 10:21:48;;;;;;;10.98;2.85;;;22.10;93.90;;;;;;4115034;28;20412;-51
2023/05/06 10:23:59;;;;;;;10.32;2.35;;;22.20;93.60;;;;;;4115211;28;20043;-53
2023/05/06 10:26:06;;;;;;;9.52;2.67;;;22.10;93.30;;;;;;4113736;28;20122;-55
2023/05/06 10:28:10;;;;;;;5.93;1.95;;;21.80;93.60;;;;;;4114388;28;20101;-55
2023/05/06 10:30:23;;;;;;;7.45;2.30;;;21.80;93.80;;;;;;4114668;28;20457;-56
2023/05/06 10:32:30;;;;;;;7.95;2.00;;;21.80;94.00;;;;;;4097498;29;20094;-56
2023/05/06 10:34:36;;;;;;;8.82;3.15;;;21.90;93.90;;;;;;4113181;28;20133;-54
2023/05/06 10:36:41;;;;;;;7.13;2.63;;;22.00;94.10;;;;;;4114332;28;20559;-54
2023/05/06 10:38:46;;;;;;;9.10;3.13;;;22.10;93.60;;;;;;4114478;28;20413;-56